Carmel, Iowa
Current Conditions -  °F | °C
As of 12:15 PM on Monday 24 Nov 2014 (Local Time) from KORC Reporting Station
Overcast Overcast  
Wind Chill:   Ceiling: 2000
Heat Index: 23°   Visibility: 10mi
Dew Point: 16°   Wind: 26mph
Humidity: 74%   Direction: 310°NW
Pressure: 29.67"   Gusts: 36mph
Location:  43.1918°N, 96.374°W
Report Text: KORC 241815Z AUTO 31023G31KT 10SM OVC020 M05/M09 A2967 RMK AO2
Loading
Personal Weather Stations






























Interactive Weather Map New forecast layout! Learn more

10-Day Weather Forecast

Advertisements
Track Severe Weather on mobile